Time;durP1;ratioP1;P1;durP2;ratioP2;P2;SDS_P1;SDS_P2;PMS_P1;PMS_P2;Temp;Humidity;BMP_temperature;BMP_pressure;BME280_temperature;BME280_humidity;BME280_pressure;Samples;Min_cycle;Max_cycle;Signal;HPM_P1;HPM_P2
2021/03/14 00:01:40;;;;;;;7.18;1.88;;;;;;;4.44;78.67;98620.72;5013437;28;20034;-80
2021/03/14 00:04:07;;;;;;;2.53;1.20;;;;;;;4.50;78.92;98629.91;5009711;28;20110;-82
2021/03/14 00:06:34;;;;;;;4.32;1.50;;;;;;;4.50;78.69;98628.16;5005594;28;20058;-82
2021/03/14 00:09:01;;;;;;;7.13;1.20;;;;;;;4.52;78.17;98626.28;5010465;28;20056;-81
2021/03/14 00:11:29;;;;;;;2.22;0.98;;;;;;;4.47;78.02;98632.72;5004635;28;20189;-83
2021/03/14 00:13:55;;;;;;;2.28;0.70;;;;;;;4.52;78.44;98641.91;5006732;28;20126;-83
2021/03/14 00:16:22;;;;;;;2.58;1.23;;;;;;;4.60;77.29;98637.97;5024918;28;20060;-82
2021/03/14 00:18:49;;;;;;;3.28;1.20;;;;;;;4.59;76.73;98634.50;5005104;28;20045;-83
2021/03/14 00:21:19;;;;;;;2.85;1.20;;;;;;;4.63;76.42;98637.75;5008380;28;20122;-81
2021/03/14 00:23:46;;;;;;;5.55;1.33;;;;;;;4.55;76.25;98635.66;5008651;28;20084;-83
2021/03/14 00:26:15;;;;;;;4.07;0.98;;;;;;;4.66;77.72;98645.38;5008770;28;20050;-82
2021/03/14 00:31:53;;;;;;;2.53;1.40;;;;;;;4.51;77.00;98648.06;4985076;28;20054;-81
2021/03/14 00:34:20;;;;;;;2.22;0.80;;;;;;;4.70;75.63;98650.28;4992740;28;20145;-81
2021/03/14 00:36:47;;;;;;;3.67;1.02;;;;;;;4.86;74.95;98650.06;4990920;28;20101;-82
2021/03/14 00:39:13;;;;;;;5.93;1.90;;;;;;;4.65;74.55;98654.13;5010898;28;20072;-81
2021/03/14 00:41:41;;;;;;;2.70;1.10;;;;;;;4.67;75.22;98655.69;4982082;28;20515;-85
2021/03/14 00:44:08;;;;;;;3.45;1.00;;;;;;;4.80;74.60;98656.53;4965946;28;21048;-82
2021/03/14 00:46:35;;;;;;;5.38;1.23;;;;;;;4.62;74.93;98649.13;5004894;28;20057;-82
2021/03/14 00:49:03;;;;;;;4.47;1.42;;;;;;;4.66;74.91;98648.81;4978590;28;20073;-83
2021/03/14 00:51:29;;;;;;;8.13;1.65;;;;;;;4.63;75.83;98653.38;4996779;28;20045;-83
2021/03/14 00:53:58;;;;;;;3.83;1.40;;;;;;;4.69;75.29;98638.19;4988808;28;20066;-82
2021/03/14 00:56:26;;;;;;;3.17;1.10;;;;;;;4.55;74.71;98651.31;4992387;28;20076;-82
2021/03/14 00:58:52;;;;;;;6.40;1.48;;;;;;;4.57;75.64;98672.88;5004534;28;20066;-83
2021/03/14 01:01:19;;;;;;;2.53;1.15;;;;;;;4.70;74.49;98658.09;5008491;28;20058;-83
2021/03/14 01:03:46;;;;;;;3.58;1.20;;;;;;;4.63;75.23;98649.00;5005937;28;20081;-82
2021/03/14 01:06:14;;;;;;;2.92;1.10;;;;;;;4.67;74.66;98658.28;5010047;28;20049;-81
2021/03/14 01:08:41;;;;;;;2.85;0.93;;;;;;;4.66;74.32;98646.19;5009481;28;20121;-82
2021/03/14 01:11:08;;;;;;;7.75;1.20;;;;;;;4.67;74.54;98654.84;5010211;28;20029;-81
2021/03/14 01:13:43;;;;;;;5.53;1.40;;;;;;;4.56;73.89;98648.59;5016260;28;20061;-82
2021/03/14 01:16:10;;;;;;;4.38;1.50;;;;;;;4.60;74.60;98648.41;5016738;28;20049;-83
2021/03/14 01:18:50;;;;;;;4.22;1.35;;;;;;;4.73;73.93;98644.03;5014845;28;20077;-80
2021/03/14 01:21:17;;;;;;;2.25;1.10;;;;;;;4.71;73.65;98645.91;5022000;28;20054;-82
2021/03/14 01:23:44;;;;;;;7.03;1.65;;;;;;;4.76;74.12;98654.25;5020962;28;20098;-81
2021/03/14 01:26:11;;;;;;;4.60;1.27;;;;;;;4.72;73.70;98665.81;4987116;28;20054;-81
2021/03/14 01:28:38;;;;;;;2.42;1.10;;;;;;;4.65;74.48;98647.16;5009750;28;20053;-81
2021/03/14 01:31:05;;;;;;;6.38;1.70;;;;;;;4.63;75.65;98662.03;5007403;28;20109;-82
2021/03/14 01:33:32;;;;;;;4.85;1.48;;;;;;;4.56;75.23;98666.84;4999661;28;20062;-82
2021/03/14 01:35:58;;;;;;;4.43;1.23;;;;;;;4.58;75.60;98657.13;4984183;28;20098;-81
2021/03/14 01:38:25;;;;;;;4.53;1.25;;;;;;;4.57;74.85;98673.69;5000802;28;20315;-81
2021/03/14 01:40:53;;;;;;;6.35;1.50;;;;;;;4.54;74.66;98657.44;5019004;28;20126;-83
2021/03/14 01:43:20;;;;;;;5.22;1.38;;;;;;;4.55;75.46;98666.94;4995054;28;20090;-83
2021/03/14 01:45:47;;;;;;;3.47;1.40;;;;;;;4.49;75.36;98668.16;5013286;28;20054;-82
2021/03/14 01:48:19;;;;;;;3.33;1.40;;;;;;;4.39;74.70;98671.47;5012493;28;20050;-80
2021/03/14 01:50:46;;;;;;;4.05;1.23;;;;;;;4.54;75.54;98665.25;5007055;28;20074;-82
2021/03/14 01:53:13;;;;;;;2.53;1.35;;;;;;;4.57;74.14;98663.28;5016103;28;20075;-81
2021/03/14 01:55:41;;;;;;;3.78;1.38;;;;;;;4.56;74.16;98666.00;4996561;28;20073;-79
2021/03/14 01:58:10;;;;;;;3.67;1.42;;;;;;;4.40;75.45;98653.13;5014836;28;20060;-83
2021/03/14 02:00:37;;;;;;;3.03;1.08;;;;;;;4.44;75.14;98653.75;5016087;28;20038;-81
2021/03/14 02:03:04;;;;;;;5.80;1.55;;;;;;;4.60;74.49;98648.41;5014642;28;20114;-83
2021/03/14 02:05:38;;;;;;;4.95;1.90;;;;;;;4.62;74.71;98651.72;5010588;28;20086;-83
2021/03/14 02:08:05;;;;;;;2.42;1.50;;;;;;;4.64;73.65;98655.06;5002519;28;20054;-82
2021/03/14 02:10:33;;;;;;;3.20;1.45;;;;;;;4.71;72.92;98638.09;5017266;28;20052;-81
2021/03/14 02:13:23;;;;;;;6.95;2.30;;;;;;;4.70;73.86;98657.28;4979806;28;20150;-80
2021/03/14 02:15:56;;;;;;;4.68;1.40;;;;;;;4.72;73.45;98648.41;4999534;28;20030;-82
2021/03/14 02:18:24;;;;;;;5.50;1.58;;;;;;;4.63;73.92;98651.59;5017113;28;20378;-84
2021/03/14 02:20:51;;;;;;;4.70;1.50;;;;;;;4.62;74.55;98655.16;4989807;28;20097;-84
2021/03/14 02:23:39;;;;;;;3.08;1.50;;;;;;;4.74;73.95;98646.53;4997326;28;21014;-83
2021/03/14 02:26:12;;;;;;;6.63;1.50;;;;;;;4.64;73.71;98648.09;4992202;28;20065;-82
2021/03/14 02:28:40;;;;;;;6.30;1.58;;;;;;;4.70;73.74;98659.88;5003645;28;20049;-81
2021/03/14 02:31:07;;;;;;;5.95;1.70;;;;;;;4.70;74.45;98655.50;5005472;28;20073;-83
2021/03/14 02:33:36;;;;;;;3.17;1.33;;;;;;;4.70;74.35;98660.72;4990812;28;20066;-83
2021/03/14 02:36:07;;;;;;;3.45;1.50;;;;;;;4.65;74.13;98664.56;5012062;28;20073;-80
2021/03/14 02:42:25;;;;;;;6.32;1.77;;;;;;;4.63;75.40;98677.66;5002478;28;21227;-81
2021/03/14 02:44:53;;;;;;;7.10;2.45;;;;;;;4.50;76.73;98690.69;4985963;28;20491;-83
2021/03/14 02:47:22;;;;;;;5.38;2.03;;;;;;;4.41;77.55;98701.69;5004582;28;20081;-84
2021/03/14 02:50:06;;;;;;;7.13;2.40;;;;;;;4.47;78.56;98685.66;5011795;28;20082;-82
2021/03/14 02:52:33;;;;;;;8.05;2.10;;;;;;;4.29;79.14;98703.31;4981158;28;20054;-81
2021/03/14 02:55:00;;;;;;;5.65;2.65;;;;;;;4.32;80.95;98695.31;5013060;28;20050;-82
2021/03/14 02:57:27;;;;;;;5.82;2.50;;;;;;;4.21;81.36;98689.13;5010050;28;20078;-81
2021/03/14 02:59:55;;;;;;;3.30;1.98;;;;;;;4.23;82.13;98700.25;4980524;28;20074;-80
2021/03/14 03:02:23;;;;;;;6.07;2.28;;;;;;;4.20;82.69;98701.31;5016083;28;20082;-81
2021/03/14 03:04:50;;;;;;;7.88;2.42;;;;;;;4.16;82.83;98709.41;4984219;28;20106;-81
2021/03/14 03:07:19;;;;;;;7.75;2.53;;;;;;;4.15;83.46;98711.19;4999190;28;20050;-82
2021/03/14 03:09:49;;;;;;;5.22;2.38;;;;;;;4.19;83.41;98710.06;5002136;28;20050;-82
2021/03/14 03:12:23;;;;;;;4.95;2.50;;;;;;;4.09;84.98;98713.31;4998087;28;20070;-82
2021/03/14 03:14:52;;;;;;;5.38;2.45;;;;;;;4.11;85.33;98709.69;5003108;28;20038;-80
2021/03/14 03:17:23;;;;;;;8.68;3.88;;;;;;;4.03;86.78;98738.81;4998423;28;20058;-81
2021/03/14 03:19:54;;;;;;;5.10;2.78;;;;;;;3.99;87.16;98723.47;5009541;28;20050;-81
2021/03/14 03:22:21;;;;;;;8.52;3.05;;;;;;;3.92;88.06;98730.84;5011684;28;20065;-82
2021/03/14 03:24:52;;;;;;;5.82;2.95;;;;;;;3.91;89.31;98733.53;4984526;28;20118;-81
2021/03/14 03:27:19;;;;;;;10.15;3.30;;;;;;;3.88;89.80;98736.34;5009486;28;20069;-82
2021/03/14 03:29:46;;;;;;;7.50;3.60;;;;;;;3.75;90.85;98744.06;5012962;28;20090;-81
2021/03/14 03:32:13;;;;;;;6.60;3.15;;;;;;;3.79;92.03;98748.97;4998753;28;20045;-83
2021/03/14 03:34:41;;;;;;;8.45;3.60;;;;;;;3.70;91.92;98756.50;4996200;28;20038;-83
2021/03/14 03:37:07;;;;;;;5.20;2.55;;;;;;;3.69;91.93;98750.47;4986195;28;20104;-85
2021/03/14 03:39:34;;;;;;;4.68;2.83;;;;;;;3.59;92.82;98761.50;4986241;28;20081;-84
2021/03/14 03:42:31;;;;;;;3.28;2.17;;;;;;;3.59;92.95;98754.53;4996394;28;20054;-81
2021/03/14 03:44:59;;;;;;;4.53;1.80;;;;;;;3.49;93.28;98758.63;5001483;28;20054;-83
2021/03/14 03:47:26;;;;;;;7.05;2.20;;;;;;;3.50;94.58;98761.13;5004162;28;20053;-82
2021/03/14 03:49:54;;;;;;;3.03;1.92;;;;;;;3.45;94.42;98783.16;4989864;28;20065;-82
2021/03/14 03:52:21;;;;;;;7.07;2.10;;;;;;;3.51;95.16;98781.03;5016002;28;20066;-81
2021/03/14 03:54:49;;;;;;;3.55;1.95;;;;;;;3.42;95.65;98780.72;5013796;28;20103;-81
2021/03/14 03:57:17;;;;;;;5.68;2.30;;;;;;;3.35;96.71;98776.81;5020196;28;20033;-80
2021/03/14 03:59:48;;;;;;;5.95;2.08;;;;;;;3.32;96.47;98790.84;4987031;28;20038;-81
2021/03/14 04:02:16;;;;;;;5.53;1.90;;;;;;;3.31;97.56;98789.16;4998132;28;20042;-81
2021/03/14 04:04:46;;;;;;;2.03;1.80;;;;;;;3.24;97.18;98804.31;5002445;28;20034;-83
2021/03/14 04:07:13;;;;;;;3.00;1.73;;;;;;;3.32;96.80;98803.00;4999095;28;20485;-83
2021/03/14 04:10:41;;;;;;;;;;;;;;;;;;;;;
2021/03/14 04:13:31;;;;;;;2.45;1.67;;;;;;;3.26;98.17;98817.22;4981640;28;20132;-81
2021/03/14 04:21:03;;;;;;;2.53;1.50;;;;;;;3.19;98.55;98816.69;4993086;28;20048;-83
2021/03/14 04:23:32;;;;;;;3.40;1.33;;;;;;;3.21;98.24;98832.25;4993933;28;20057;-82
2021/03/14 04:25:59;;;;;;;3.78;1.40;;;;;;;3.23;99.02;98832.97;4989495;28;20514;-80
2021/03/14 04:28:31;;;;;;;3.83;1.23;;;;;;;3.26;98.82;98823.25;4985641;28;21371;-83
2021/03/14 04:30:59;;;;;;;6.45;1.40;;;;;;;3.28;98.99;98834.38;4989457;28;20050;-81
2021/03/14 04:33:28;;;;;;;3.97;1.10;;;;;;;3.24;98.61;98848.50;5010308;28;21141;-81
2021/03/14 04:36:00;;;;;;;2.40;1.10;;;;;;;3.22;98.59;98865.94;5017048;28;20113;-80
2021/03/14 04:38:27;;;;;;;1.52;1.05;;;;;;;3.05;98.66;98846.09;5009328;28;20030;-81
2021/03/14 04:40:55;;;;;;;6.90;2.05;;;;;;;3.07;98.79;98856.44;4993950;28;20102;-80
2021/03/14 04:43:23;;;;;;;2.33;0.93;;;;;;;3.03;98.95;98858.34;5011663;28;21060;-80
2021/03/14 04:45:51;;;;;;;2.42;1.05;;;;;;;2.96;99.07;98856.19;5006347;28;20047;-81
2021/03/14 04:48:22;;;;;;;1.00;0.90;;;;;;;2.97;99.53;98874.31;5010234;28;20058;-82
2021/03/14 04:50:51;;;;;;;3.15;1.20;;;;;;;2.95;99.84;98868.34;5005377;28;20069;-81
2021/03/14 04:53:20;;;;;;;1.77;1.25;;;;;;;2.90;100.00;98877.31;4990531;28;20471;-82
2021/03/14 04:55:48;;;;;;;5.15;1.20;;;;;;;2.96;99.70;98879.56;4981127;28;20420;-80
2021/03/14 04:58:17;;;;;;;1.50;0.85;;;;;;;2.94;99.86;98874.47;4973662;28;20064;-80
2021/03/14 05:00:44;;;;;;;1.83;1.45;;;;;;;2.96;99.52;98890.81;4995388;28;20045;-81
2021/03/14 05:03:12;;;;;;;2.90;1.13;;;;;;;2.96;99.57;98889.97;4983314;28;20051;-82
2021/03/14 05:05:40;;;;;;;1.02;0.90;;;;;;;2.98;100.00;98886.38;5014887;28;20042;-80
2021/03/14 05:08:09;;;;;;;2.40;1.10;;;;;;;2.99;100.00;98901.03;4978811;28;20050;-82
2021/03/14 05:10:42;;;;;;;1.00;0.90;;;;;;;2.96;100.00;98893.41;5021647;28;20479;-80
2021/03/14 05:13:09;;;;;;;1.00;0.82;;;;;;;3.02;100.00;98907.84;5016498;28;20037;-80
2021/03/14 05:15:37;;;;;;;2.08;1.10;;;;;;;2.90;99.28;98919.75;5021947;28;20039;-80
2021/03/14 05:18:05;;;;;;;2.15;1.25;;;;;;;2.85;100.00;98906.16;5015485;28;20045;-81
2021/03/14 05:20:32;;;;;;;1.80;1.27;;;;;;;2.90;100.00;98932.75;5018609;28;20045;-81
2021/03/14 05:23:01;;;;;;;1.75;1.05;;;;;;;2.82;100.00;98932.31;5009301;28;20114;-81
2021/03/14 05:25:28;;;;;;;1.20;1.00;;;;;;;2.95;100.00;98924.69;5002690;28;20046;-81
2021/03/14 05:27:57;;;;;;;1.52;1.23;;;;;;;2.85;100.00;98944.31;5017979;28;20094;-81
2021/03/14 05:30:26;;;;;;;3.20;1.33;;;;;;;3.02;100.00;98936.44;5008480;28;20030;-80
2021/03/14 05:32:57;;;;;;;5.05;1.40;;;;;;;2.93;99.22;98942.97;4999722;28;20070;-81
2021/03/14 05:35:26;;;;;;;5.30;1.88;;;;;;;2.89;100.00;98951.03;5020082;28;20036;-81
2021/03/14 05:37:57;;;;;;;1.92;1.60;;;;;;;2.93;100.00;98953.38;5018574;28;20050;-80
2021/03/14 05:40:25;;;;;;;3.47;1.55;;;;;;;3.03;100.00;98961.50;5016538;28;20031;-82
2021/03/14 05:42:52;;;;;;;2.20;1.40;;;;;;;2.87;100.00;98958.88;5013291;28;20048;-82
2021/03/14 05:45:20;;;;;;;3.47;1.50;;;;;;;2.87;100.00;98969.28;4985762;28;20105;-82
2021/03/14 05:47:48;;;;;;;7.18;1.50;;;;;;;2.84;100.00;98972.06;4997375;28;20050;-81
2021/03/14 05:50:18;;;;;;;3.22;1.67;;;;;;;2.91;100.00;98973.41;4980585;28;20058;-81
2021/03/14 05:52:45;;;;;;;2.40;1.23;;;;;;;2.97;100.00;98980.00;4997832;28;20867;-82
2021/03/14 05:55:15;;;;;;;5.53;1.27;;;;;;;2.92;100.00;98980.25;4993248;28;20068;-83
2021/03/14 05:57:50;;;;;;;2.00;1.45;;;;;;;2.97;100.00;98987.81;5012063;28;20054;-80
2021/03/14 06:00:26;;;;;;;2.35;1.40;;;;;;;2.97;100.00;98996.47;5008218;28;20578;-82
2021/03/14 06:02:56;;;;;;;3.30;1.45;;;;;;;2.99;100.00;99009.38;5002778;28;20038;-83
2021/03/14 06:05:24;;;;;;;1.52;1.42;;;;;;;2.99;100.00;98992.03;5007456;28;20144;-83
2021/03/14 06:07:53;;;;;;;2.03;1.60;;;;;;;2.98;100.00;99018.09;5003473;28;20069;-80
2021/03/14 06:10:20;;;;;;;3.58;1.48;;;;;;;2.86;100.00;99013.56;4993134;28;20040;-81
2021/03/14 06:12:49;;;;;;;2.58;1.33;;;;;;;2.82;100.00;99019.84;4998170;28;20125;-83
2021/03/14 06:15:16;;;;;;;1.63;1.08;;;;;;;2.95;100.00;99026.06;4965700;28;20070;-82
2021/03/14 06:17:43;;;;;;;2.50;1.80;;;;;;;3.02;100.00;99025.66;5001799;28;20109;-81
2021/03/14 06:20:35;;;;;;;4.10;1.20;;;;;;;2.95;100.00;99039.91;4986873;28;20057;-81
2021/03/14 06:23:13;;;;;;;3.97;1.25;;;;;;;2.96;100.00;99044.16;4993906;28;20068;-82
2021/03/14 06:25:45;;;;;;;2.30;1.30;;;;;;;2.95;99.99;99045.09;5005524;28;20061;-81
2021/03/14 06:28:14;;;;;;;2.10;0.82;;;;;;;3.11;100.00;99057.25;5007191;28;20043;-82
2021/03/14 06:30:42;;;;;;;0.88;0.82;;;;;;;3.03;100.00;99065.50;5015077;28;20037;-81
2021/03/14 06:33:10;;;;;;;3.97;1.40;;;;;;;3.05;99.96;99063.63;4997988;28;20058;-83
2021/03/14 06:35:42;;;;;;;2.78;1.50;;;;;;;3.01;100.00;99082.91;5006795;28;20053;-83
2021/03/14 06:38:31;;;;;;;1.90;1.33;;;;;;;3.08;100.00;99080.84;5002587;28;20060;-83
2021/03/14 06:41:07;;;;;;;3.15;1.30;;;;;;;3.20;100.00;99081.03;5004567;28;20109;-80
2021/03/14 06:43:41;;;;;;;2.00;1.25;;;;;;;3.28;100.00;99098.81;5009725;28;20118;-79
2021/03/14 06:46:20;;;;;;;1.92;1.10;;;;;;;3.17;99.01;99088.16;5020469;28;20105;-81
2021/03/14 06:48:48;;;;;;;1.60;1.05;;;;;;;3.09;99.98;99108.53;5017364;28;20077;-80
2021/03/14 06:51:48;;;;;;;2.28;0.98;;;;;;;3.01;100.00;99112.34;4981949;28;20106;-80
2021/03/14 06:54:17;;;;;;;1.42;1.23;;;;;;;3.12;100.00;99108.38;5011708;28;20088;-80
2021/03/14 06:57:03;;;;;;;1.85;1.23;;;;;;;3.12;99.40;99127.41;4997384;28;20042;-81
2021/03/14 06:59:31;;;;;;;1.50;1.00;;;;;;;3.21;100.00;99142.53;4982637;28;20050;-82
2021/03/14 07:02:03;;;;;;;4.30;1.42;;;;;;;3.21;99.95;99132.13;4992343;28;20045;-82
2021/03/14 07:04:34;;;;;;;4.78;1.08;;;;;;;3.19;98.91;99141.75;5009304;28;20085;-80
2021/03/14 07:07:01;;;;;;;1.63;1.13;;;;;;;3.11;99.86;99133.53;4977676;28;20056;-81
2021/03/14 07:09:29;;;;;;;2.45;1.10;;;;;;;3.02;99.90;99147.84;5010028;28;20054;-82
2021/03/14 07:11:55;;;;;;;2.03;1.23;;;;;;;3.05;99.53;99159.81;5010057;28;20086;-82
2021/03/14 07:14:24;;;;;;;3.20;1.05;;;;;;;3.09;99.40;99171.75;4992596;28;20109;-80
2021/03/14 07:16:53;;;;;;;3.72;1.60;;;;;;;3.12;98.67;99181.16;5008704;28;20125;-82
2021/03/14 07:19:24;;;;;;;3.20;1.15;;;;;;;3.17;98.80;99194.78;4991719;28;20072;-81
2021/03/14 07:22:01;;;;;;;1.85;1.20;;;;;;;3.21;99.35;99180.69;5002424;28;20046;-80
2021/03/14 07:24:39;;;;;;;3.05;1.30;;;;;;;3.27;99.17;99195.97;4980044;28;20038;-81
2021/03/14 07:27:10;;;;;;;2.13;1.20;;;;;;;3.39;98.17;99202.31;4995774;28;20745;-84
2021/03/14 07:29:38;;;;;;;3.25;1.08;;;;;;;3.46;98.12;99204.47;5005305;28;20060;-83
2021/03/14 07:32:07;;;;;;;1.80;1.00;;;;;;;3.40;97.92;99216.97;5003518;28;20061;-81
2021/03/14 07:34:34;;;;;;;1.20;1.10;;;;;;;3.34;98.09;99212.94;4996944;28;20061;-82
2021/03/14 07:37:02;;;;;;;3.58;1.10;;;;;;;3.36;98.32;99233.66;5003890;28;21067;-82
2021/03/14 07:39:29;;;;;;;2.97;1.40;;;;;;;3.49;98.23;99222.53;5005952;28;20046;-80
2021/03/14 07:41:57;;;;;;;1.75;1.50;;;;;;;3.37;97.39;99227.53;4998498;28;20082;-81
2021/03/14 07:44:27;;;;;;;3.47;2.15;;;;;;;3.42;97.60;99236.81;4987002;28;20073;-81
2021/03/14 07:46:55;;;;;;;5.40;1.60;;;;;;;3.40;97.22;99243.84;5006085;28;20076;-82
2021/03/14 07:49:27;;;;;;;2.92;1.00;;;;;;;3.66;96.42;99245.09;5004157;28;20053;-81
2021/03/14 07:51:59;;;;;;;4.18;1.00;;;;;;;3.78;97.11;99249.66;4998729;28;20110;-80
2021/03/14 07:54:29;;;;;;;2.28;1.00;;;;;;;3.72;96.04;99254.31;4996530;28;20049;-82
2021/03/14 07:56:59;;;;;;;1.70;1.10;;;;;;;3.71;95.11;99273.47;4969888;28;20056;-82
2021/03/14 07:59:32;;;;;;;1.17;0.80;;;;;;;3.78;95.86;99267.88;4992713;28;20043;-80
2021/03/14 08:02:17;;;;;;;6.60;2.35;;;;;;;3.85;95.51;99264.94;4991439;28;20064;-79
2021/03/14 08:04:55;;;;;;;1.40;0.90;;;;;;;3.71;95.88;99270.88;5009437;28;20388;-80
2021/03/14 08:07:34;;;;;;;4.55;1.73;;;;;;;3.58;95.50;99283.69;5011788;28;20387;-79
2021/03/14 08:10:03;;;;;;;3.25;1.17;;;;;;;3.74;95.76;99294.16;5008768;28;20064;-81
2021/03/14 08:12:36;;;;;;;5.78;1.42;;;;;;;3.85;94.40;99306.59;5006797;28;20457;-80
2021/03/14 08:15:20;;;;;;;2.63;1.27;;;;;;;3.84;94.52;99308.34;4992788;28;20440;-82
2021/03/14 08:17:48;;;;;;;2.55;1.15;;;;;;;3.92;94.73;99302.75;4985773;28;20042;-81
2021/03/14 08:20:18;;;;;;;3.00;1.23;;;;;;;3.93;94.45;99312.25;4998860;28;20076;-82
2021/03/14 08:22:46;;;;;;;3.38;1.25;;;;;;;3.95;95.40;99319.03;4982612;28;20049;-82
2021/03/14 08:25:17;;;;;;;1.75;1.20;;;;;;;3.90;94.99;99321.03;5011862;28;20058;-80
2021/03/14 08:27:46;;;;;;;1.27;0.93;;;;;;;4.00;94.16;99319.63;5007279;28;20088;-80
2021/03/14 08:30:32;;;;;;;5.72;1.27;;;;;;;4.07;95.04;99326.19;5015783;28;21161;-80
2021/03/14 08:33:17;;;;;;;5.78;1.65;;;;;;;3.97;94.53;99332.81;5012223;28;20065;-79
2021/03/14 08:35:58;;;;;;;3.83;1.15;;;;;;;3.84;94.13;99334.38;5014051;28;20038;-80
2021/03/14 08:38:28;;;;;;;4.70;1.48;;;;;;;3.92;94.35;99336.59;5027215;28;20031;-81
2021/03/14 08:41:26;;;;;;;3.28;1.70;;;;;;;4.19;94.62;99342.97;5013513;28;20068;-81
2021/03/14 08:43:56;;;;;;;5.50;1.30;;;;;;;4.34;93.26;99345.66;4991064;28;20052;-81
2021/03/14 08:46:48;;;;;;;;;;;;;;;3.92;94.79;99349.63;4981862;28;20061;-82
2021/03/14 08:53:01;;;;;;;3.92;1.70;;;;;;;4.19;94.21;99370.78;5009858;28;20049;-80
2021/03/14 08:55:29;;;;;;;7.28;2.00;;;;;;;4.10;95.78;99386.84;4976368;28;20047;-80
2021/03/14 08:57:56;;;;;;;4.40;2.00;;;;;;;4.07;95.65;99395.69;4998612;28;20042;-80
2021/03/14 09:00:23;;;;;;;7.25;2.78;;;;;;;4.04;97.39;99411.47;5014751;28;20102;-80
2021/03/14 09:03:02;;;;;;;5.95;1.95;;;;;;;4.02;97.52;99429.78;5016474;28;20041;-79
2021/03/14 09:05:54;;;;;;;7.70;2.20;;;;;;;3.95;97.83;99431.00;5018145;28;20050;-82
2021/03/14 09:08:21;;;;;;;3.17;1.77;;;;;;;3.95;98.04;99428.38;4997041;28;20054;-79
2021/03/14 09:10:51;;;;;;;4.30;2.00;;;;;;;4.15;97.07;99434.38;5014098;28;20102;-80
2021/03/14 09:13:27;;;;;;;5.93;1.67;;;;;;;4.31;95.76;99443.03;4989703;28;20066;-80
2021/03/14 09:15:54;;;;;;;2.42;1.80;;;;;;;4.11;95.28;99441.47;4990212;28;20038;-83
2021/03/14 09:18:25;;;;;;;4.93;2.38;;;;;;;4.32;95.50;99443.00;4991291;28;20062;-82
2021/03/14 09:20:59;;;;;;;5.88;2.70;;;;;;;4.21;96.31;99447.06;4975880;28;20065;-82
2021/03/14 09:23:26;;;;;;;10.57;3.22;;;;;;;4.46;96.40;99460.50;4998393;28;20940;-83
2021/03/14 09:25:56;;;;;;;4.63;2.90;;;;;;;4.77;95.28;99467.53;5006003;28;20022;-82
2021/03/14 09:28:23;;;;;;;6.20;2.83;;;;;;;4.82;93.55;99464.69;5002181;28;20050;-83
2021/03/14 09:30:50;;;;;;;6.00;2.55;;;;;;;4.85;91.71;99472.31;4997533;28;20096;-82
2021/03/14 09:33:17;;;;;;;6.05;1.80;;;;;;;4.80;91.13;99475.19;4976148;28;20472;-84
2021/03/14 09:35:44;;;;;;;5.22;1.83;;;;;;;4.78;90.68;99478.81;4982831;28;20072;-82
2021/03/14 09:38:14;;;;;;;4.40;2.08;;;;;;;4.69;91.47;99481.91;4993042;28;20112;-82
2021/03/14 09:40:43;;;;;;;4.75;2.33;;;;;;;4.48;90.96;99489.06;4979178;28;20053;-84
2021/03/14 09:43:23;;;;;;;5.55;2.13;;;;;;;4.61;91.64;99487.53;4995329;28;20054;-84
2021/03/14 09:45:53;;;;;;;5.95;2.85;;;;;;;4.68;90.59;99498.44;5005969;28;20053;-81
2021/03/14 09:48:25;;;;;;;4.75;2.38;;;;;;;4.68;88.82;99501.06;4994449;28;20158;-83
2021/03/14 09:50:55;;;;;;;8.50;2.67;;;;;;;4.87;88.92;99517.44;4999693;28;20053;-83
2021/03/14 09:53:33;;;;;;;4.57;2.50;;;;;;;5.14;89.30;99517.72;4997930;28;20062;-82
2021/03/14 09:56:07;;;;;;;7.15;3.20;;;;;;;5.08;88.14;99518.03;5003462;28;20062;-83
2021/03/14 09:58:34;;;;;;;6.70;3.22;;;;;;;4.91;89.64;99534.59;4968438;28;20104;-82
2021/03/14 10:01:01;;;;;;;15.77;3.72;;;;;;;5.07;89.98;99535.44;5005387;28;20062;-82
2021/03/14 10:03:30;;;;;;;7.78;3.92;;;;;;;5.16;90.18;99531.50;4988858;28;20056;-84
2021/03/14 10:05:59;;;;;;;8.45;3.75;;;;;;;4.86;89.39;99541.81;4988239;28;20072;-81
2021/03/14 10:08:28;;;;;;;9.13;3.78;;;;;;;5.05;90.32;99545.16;5010302;28;20065;-82
2021/03/14 10:11:04;;;;;;;5.88;2.60;;;;;;;5.16;90.00;99548.94;5021227;28;20052;-79
2021/03/14 10:13:34;;;;;;;;;;;;;;;4.92;90.57;99549.31;4982562;28;20066;-81
2021/03/14 10:16:04;;;;;;;6.28;2.53;;;;;;;4.78;91.80;99559.63;4980449;28;19921;-83
2021/03/14 10:18:34;;;;;;;9.10;3.17;;;;;;;5.01;91.86;99561.88;4969796;28;20145;-83
2021/03/14 10:21:26;;;;;;;7.28;2.47;;;;;;;5.17;90.93;99566.25;4976222;28;20053;-84
2021/03/14 10:24:17;;;;;;;10.10;2.92;;;;;;;5.37;90.71;99558.22;4997930;28;20106;-79
2021/03/14 10:26:58;;;;;;;7.75;4.22;;;;;;;5.76;89.06;99570.84;4973266;28;20055;-82
2021/03/14 10:29:30;;;;;;;5.95;2.47;;;;;;;5.79;88.31;99570.66;4982606;28;20144;-81
2021/03/14 10:31:58;;;;;;;4.15;2.13;;;;;;;5.68;87.47;99573.03;4981261;28;20038;-82
2021/03/14 10:34:26;;;;;;;7.70;2.80;;;;;;;5.59;87.16;99577.00;4984013;28;20114;-81
2021/03/14 10:36:54;;;;;;;6.97;2.28;;;;;;;5.86;86.36;99578.16;5012792;28;20137;-80
2021/03/14 10:39:29;;;;;;;5.85;2.35;;;;;;;5.76;86.47;99591.75;4998553;28;20034;-82
2021/03/14 10:41:59;;;;;;;5.47;2.47;;;;;;;5.66;86.52;99590.53;5019658;28;20046;-81
2021/03/14 10:44:27;;;;;;;6.13;2.95;;;;;;;5.57;86.38;99612.78;5000144;28;20027;-78
2021/03/14 10:46:54;;;;;;;7.72;3.10;;;;;;;5.31;87.35;99608.97;4982623;28;20070;-81
2021/03/14 10:49:35;;;;;;;8.32;3.05;;;;;;;5.22;88.63;99619.03;5020703;28;20094;-79
2021/03/14 10:52:02;;;;;;;8.90;3.55;;;;;;;5.33;88.61;99621.94;4979857;28;20051;-83
2021/03/14 10:54:37;;;;;;;6.95;3.55;;;;;;;5.36;87.76;99623.53;5013129;28;20054;-80
2021/03/14 10:57:15;;;;;;;12.32;4.10;;;;;;;5.53;87.63;99629.53;5018750;28;20038;-82
2021/03/14 10:59:42;;;;;;;7.20;3.72;;;;;;;5.49;86.39;99629.78;5001144;28;20054;-82
2021/03/14 11:02:33;;;;;;;9.65;3.65;;;;;;;5.58;86.74;99637.97;5015720;28;20034;-83
2021/03/14 11:05:02;;;;;;;11.02;3.72;;;;;;;5.57;86.47;99644.09;4995778;28;20042;-85
2021/03/14 11:07:34;;;;;;;9.05;4.30;;;;;;;5.56;86.86;99641.59;4999588;28;20066;-81
2021/03/14 11:10:12;;;;;;;12.68;4.18;;;;;;;5.62;85.93;99650.84;5003270;28;20167;-80
2021/03/14 11:12:43;;;;;;;10.00;3.83;;;;;;;5.58;86.21;99651.03;5002938;28;20286;-82
2021/03/14 11:15:23;;;;;;;9.23;3.38;;;;;;;5.77;86.06;99656.09;5000333;28;20034;-78
2021/03/14 11:17:51;;;;;;;9.98;2.83;;;;;;;5.72;85.16;99658.13;5016145;28;20070;-81
2021/03/14 11:20:20;;;;;;;6.97;2.85;;;;;;;5.66;85.22;99671.47;5002015;28;20058;-81
2021/03/14 11:22:51;;;;;;;5.38;3.38;;;;;;;5.60;85.04;99674.44;5017924;28;20077;-81
2021/03/14 11:25:19;;;;;;;11.77;3.35;;;;;;;5.63;84.95;99681.25;4993272;28;20455;-82
2021/03/14 11:27:47;;;;;;;12.13;4.30;;;;;;;5.55;85.92;99676.44;5014749;28;20065;-84
2021/03/14 11:30:16;;;;;;;8.93;4.30;;;;;;;5.51;86.19;99681.00;5011056;28;20061;-78
2021/03/14 11:32:43;;;;;;;11.93;3.60;;;;;;;5.51;86.25;99693.19;5011599;28;20056;-83
2021/03/14 11:35:10;;;;;;;9.07;4.05;;;;;;;5.70;85.76;99687.84;5007691;28;20136;-82
2021/03/14 11:37:37;;;;;;;11.35;3.20;;;;;;;5.77;85.14;99697.88;4988643;28;20057;-84
2021/03/14 11:40:06;;;;;;;12.25;3.45;;;;;;;5.72;85.91;99699.91;4998693;28;20088;-83
2021/03/14 11:42:34;;;;;;;9.60;2.80;;;;;;;5.87;85.53;99700.00;5011769;28;20046;-81
2021/03/14 11:45:01;;;;;;;20.23;5.88;;;;;;;6.30;83.70;99699.34;4999117;28;20027;-83
2021/03/14 11:47:28;;;;;;;8.18;2.53;;;;;;;6.51;81.60;99702.50;4999172;28;20125;-82
2021/03/14 11:49:57;;;;;;;8.23;2.63;;;;;;;6.47;81.86;99706.22;5004620;28;20093;-83
2021/03/14 11:52:24;;;;;;;5.50;2.35;;;;;;;6.72;80.03;99707.44;4969912;28;20062;-83
2021/03/14 11:54:51;;;;;;;6.35;2.40;;;;;;;6.99;79.94;99705.84;5004193;28;20618;-82
2021/03/14 11:57:19;;;;;;;6.43;2.40;;;;;;;7.12;78.06;99710.38;4995202;28;20117;-83
2021/03/14 11:59:45;;;;;;;7.55;2.45;;;;;;;7.58;76.41;99703.19;4990156;28;20046;-80
2021/03/14 12:02:37;;;;;;;11.55;2.63;;;;;;;7.59;76.03;99710.94;4994713;28;20054;-81
2021/03/14 12:05:22;;;;;;;5.50;2.38;;;;;;;7.10;76.89;99716.50;4979887;28;20038;-83
2021/03/14 12:07:49;;;;;;;5.38;1.92;;;;;;;7.13;76.98;99710.25;4992743;28;20072;-82
2021/03/14 12:10:16;;;;;;;6.85;2.45;;;;;;;6.93;77.96;99724.50;4988468;28;20137;-81
2021/03/14 12:12:43;;;;;;;6.40;2.50;;;;;;;6.96;78.43;99715.63;5006109;28;20064;-82
2021/03/14 12:15:11;;;;;;;6.70;2.70;;;;;;;7.06;77.32;99722.84;5005673;28;20625;-82